createdAt,value
2019-02-12T00:00:53.845Z,18.77
2019-02-12T00:06:02.344Z,14.13
2019-02-12T00:11:10.487Z,9.97
2019-02-12T00:16:17.523Z,9.80
2019-02-12T00:21:23.549Z,12.37
2019-02-12T00:26:30.624Z,23.70
2019-02-12T00:31:37.501Z,13.23
2019-02-12T00:36:44.645Z,8.70
2019-02-12T00:41:51.503Z,13.50
2019-02-12T00:46:58.398Z,23.30
2019-02-12T00:52:05.192Z,14.07
2019-02-12T00:57:12.384Z,11.10
2019-02-12T01:02:19.373Z,10.90
2019-02-12T01:07:25.493Z,12.00
2019-02-12T01:12:32.526Z,8.97
2019-02-12T01:17:39.533Z,11.27
2019-02-12T01:22:46.451Z,11.00
2019-02-12T01:27:53.737Z,11.77
2019-02-12T01:33:00.997Z,8.43
2019-02-12T01:38:07.839Z,6.43
2019-02-12T01:43:15.269Z,9.23
2019-02-12T01:48:21.930Z,8.43
2019-02-12T01:53:28.002Z,6.97
2019-02-12T01:58:35.138Z,5.70
2019-02-12T02:03:42.183Z,4.53
2019-02-12T02:08:49.120Z,8.00
2019-02-12T02:13:56.059Z,6.07
2019-02-12T02:19:03.333Z,9.90
2019-02-12T02:24:10.559Z,2.57
2019-02-12T02:29:17.466Z,6.83
2019-02-12T02:34:23.448Z,9.37
2019-02-12T02:39:30.977Z,4.73
2019-02-12T02:44:37.677Z,5.63
2019-02-12T02:49:57.009Z,6.87
2019-02-12T02:55:04.146Z,8.67
2019-02-12T03:00:13.110Z,7.33
2019-02-12T03:05:20.090Z,8.13
2019-02-12T03:10:26.111Z,8.30
2019-02-12T03:15:33.141Z,7.70
2019-02-12T03:20:58.398Z,8.43
2019-02-12T03:26:05.157Z,9.87
2019-02-12T03:31:12.331Z,6.60
2019-02-12T03:36:39.530Z,10.97
2019-02-12T03:41:46.535Z,7.13
2019-02-12T03:46:53.304Z,10.73
2019-02-12T03:52:00.036Z,5.00
2019-02-12T03:57:06.662Z,6.30
2019-02-12T04:02:13.484Z,13.43
2019-02-12T04:07:20.361Z,5.63
2019-02-12T04:12:27.356Z,8.10
2019-02-12T04:17:34.213Z,5.60
2019-02-12T04:22:41.058Z,5.07
2019-02-12T04:27:47.639Z,7.20
2019-02-12T04:32:56.978Z,9.20
2019-02-12T04:38:03.747Z,8.07
2019-02-12T04:43:10.809Z,4.83
2019-02-12T04:48:17.257Z,7.17
2019-02-12T04:53:23.236Z,5.07
2019-02-12T04:58:29.164Z,4.20
2019-02-12T05:03:35.597Z,7.63
2019-02-12T05:09:30.091Z,5.00
2019-02-12T05:14:37.095Z,12.20
2019-02-12T05:19:43.939Z,6.10
2019-02-12T05:24:50.809Z,6.67
2019-02-12T05:29:57.766Z,9.13
2019-02-12T05:35:04.533Z,2.67
2019-02-12T05:40:12.151Z,4.87
2019-02-12T05:45:18.880Z,6.03
2019-02-12T05:50:24.812Z,11.90
2019-02-12T05:55:31.677Z,6.10
2019-02-12T06:00:38.491Z,9.73
2019-02-12T06:05:45.120Z,4.97
2019-02-12T06:10:53.061Z,11.10
2019-02-12T06:16:01.128Z,5.53
2019-02-12T06:21:09.660Z,7.33
2019-02-12T06:26:17.305Z,5.17
2019-02-12T06:31:23.375Z,10.80
2019-02-12T06:36:30.198Z,9.43
2019-02-12T06:41:37.381Z,9.43
2019-02-12T06:46:44.011Z,6.57
2019-02-12T06:51:50.623Z,7.07
2019-02-12T06:56:57.384Z,12.57
2019-02-12T07:02:57.896Z,10.97
2019-02-12T07:08:51.879Z,13.03
2019-02-12T07:14:34.283Z,11.23
2019-02-12T07:20:20.689Z,6.00
2019-02-12T07:26:13.736Z,11.70
2019-02-12T07:31:50.653Z,7.50
2019-02-12T07:37:34.254Z,7.50
2019-02-12T07:43:17.967Z,8.57
2019-02-12T07:48:54.325Z,8.97
2019-02-12T07:54:34.864Z,13.17
2019-02-12T07:59:54.701Z,10.70
2019-02-12T08:05:43.390Z,7.73
2019-02-12T08:11:03.371Z,5.60
2019-02-12T08:16:44.601Z,10.40
2019-02-12T08:22:26.910Z,8.70
2019-02-12T08:28:01.006Z,7.30
2019-02-12T08:33:23.152Z,11.60
2019-02-12T08:38:39.534Z,6.13
2019-02-12T08:44:15.752Z,14.10
2019-02-12T08:50:14.160Z,14.57
2019-02-12T08:55:45.445Z,17.30
2019-02-12T09:00:56.503Z,18.97
2019-02-12T09:06:44.577Z,16.93
2019-02-12T09:12:33.896Z,18.20
2019-02-12T09:18:13.325Z,17.47
2019-02-12T09:24:00.153Z,14.77
2019-02-12T09:29:32.602Z,12.80
2019-02-12T09:34:46.059Z,10.23
2019-02-12T09:40:05.523Z,11.37
2019-02-12T09:45:57.710Z,12.47
2019-02-12T09:51:29.078Z,18.37
2019-02-12T09:57:15.895Z,8.63
2019-02-12T10:02:50.372Z,7.50
2019-02-12T10:08:20.724Z,4.87
2019-02-12T10:14:21.004Z,6.40
2019-02-12T10:19:51.844Z,8.53
2019-02-12T10:25:15.626Z,12.33
2019-02-12T10:30:56.010Z,12.83
2019-02-12T10:36:02.976Z,12.83
2019-02-12T10:41:09.888Z,13.37
2019-02-12T10:46:17.284Z,13.93
2019-02-12T10:51:23.508Z,12.63
2019-02-12T10:56:29.438Z,13.00
2019-02-12T11:01:36.379Z,15.43
2019-02-12T11:06:44.411Z,12.87
2019-02-12T11:11:51.507Z,11.77
2019-02-12T11:16:58.690Z,13.17
2019-02-12T11:22:06.665Z,6.60
2019-02-12T11:27:14.987Z,8.80
2019-02-12T11:32:21.947Z,10.83
2019-02-12T11:37:27.889Z,11.60
2019-02-12T11:42:35.593Z,11.13
2019-02-12T11:47:42.361Z,11.53
2019-02-12T11:52:49.501Z,12.70
2019-02-12T11:57:56.095Z,10.00
2019-02-12T12:03:02.886Z,9.10
2019-02-12T12:08:09.319Z,11.70
2019-02-12T12:13:16.199Z,12.43
2019-02-12T12:18:23.274Z,13.00
2019-02-12T12:23:30.937Z,6.23
2019-02-12T12:28:37.880Z,7.87
2019-02-12T12:33:45.626Z,7.67
2019-02-12T12:38:52.651Z,10.07
2019-02-12T12:44:00.104Z,9.63
2019-02-12T12:49:07.129Z,12.37
2019-02-12T12:54:13.971Z,9.47
2019-02-12T12:59:20.691Z,14.60
2019-02-12T13:04:26.791Z,10.43
2019-02-12T13:09:32.843Z,12.50
2019-02-12T13:14:41.447Z,12.87
2019-02-12T13:19:49.744Z,9.63
2019-02-12T13:24:56.666Z,8.53
2019-02-12T13:30:04.068Z,13.50
2019-02-12T13:35:32.214Z,9.07
2019-02-12T13:40:40.091Z,14.90
2019-02-12T13:45:46.875Z,12.07
2019-02-12T13:50:53.836Z,13.30
2019-02-12T13:56:00.750Z,15.30
2019-02-12T14:01:07.557Z,15.53
2019-02-12T14:06:14.493Z,18.23
2019-02-12T14:11:23.362Z,17.90
2019-02-12T14:16:30.965Z,16.30
2019-02-12T14:21:37.762Z,10.77
2019-02-12T14:26:44.736Z,12.80
2019-02-12T14:31:53.041Z,16.57
2019-02-12T14:37:02.116Z,13.77
2019-02-12T14:42:09.066Z,11.97
2019-02-12T14:47:17.346Z,16.20
2019-02-12T14:52:23.282Z,8.63
2019-02-12T14:57:31.091Z,11.70
2019-02-12T15:02:38.215Z,11.00
2019-02-12T15:07:45.966Z,9.13
2019-02-12T15:12:53.957Z,10.20
2019-02-12T15:18:00.519Z,12.97
2019-02-12T15:23:07.376Z,17.13
2019-02-12T15:28:14.172Z,9.20
2019-02-12T15:33:21.530Z,11.87
2019-02-12T15:38:27.460Z,11.17
2019-02-12T15:43:33.462Z,12.77
2019-02-12T15:48:40.339Z,11.97
2019-02-12T15:53:46.795Z,9.47
2019-02-12T15:58:55.038Z,12.00
2019-02-12T16:04:02.027Z,6.73
2019-02-12T16:09:09.231Z,11.80
2019-02-12T16:14:18.524Z,6.60
2019-02-12T16:19:24.696Z,10.83
2019-02-12T16:24:30.718Z,12.80
2019-02-12T16:29:58.302Z,17.03
2019-02-12T16:35:07.274Z,13.10
2019-02-12T16:40:18.582Z,14.97
2019-02-12T16:45:34.689Z,8.23
2019-02-12T16:50:41.758Z,16.83
2019-02-12T16:55:48.782Z,18.83
2019-02-12T17:00:56.252Z,15.47
2019-02-12T17:06:03.081Z,13.70
2019-02-12T17:11:10.137Z,16.27
2019-02-12T17:16:18.197Z,14.20
2019-02-12T17:21:43.540Z,14.20
2019-02-12T17:26:51.320Z,12.80
2019-02-12T17:31:58.418Z,14.33
2019-02-12T17:37:05.641Z,13.17
2019-02-12T17:42:12.647Z,24.57
2019-02-12T17:47:19.709Z,23.33
2019-02-12T17:52:25.727Z,17.23
2019-02-12T17:57:33.446Z,14.70
2019-02-12T18:02:41.641Z,17.63
2019-02-12T18:07:48.836Z,17.20
2019-02-12T18:12:55.656Z,12.27
2019-02-12T18:18:03.503Z,10.27
2019-02-12T18:23:10.137Z,14.33
2019-02-12T18:28:19.551Z,14.10
2019-02-12T18:33:25.517Z,14.47
2019-02-12T18:38:33.516Z,21.90
2019-02-12T18:43:40.144Z,12.17
2019-02-12T18:48:48.756Z,12.67
2019-02-12T18:53:56.486Z,15.43
2019-02-12T18:59:04.230Z,15.20
2019-02-12T19:04:10.881Z,15.83
2019-02-12T19:09:17.757Z,15.57
2019-02-12T19:14:23.939Z,8.47
2019-02-12T19:19:43.122Z,13.17
2019-02-12T19:24:50.163Z,14.93
2019-02-12T19:29:57.224Z,9.87
2019-02-12T19:35:04.710Z,13.67
2019-02-12T19:40:13.204Z,12.60
2019-02-12T19:45:21.678Z,18.53
2019-02-12T19:50:27.785Z,16.07
2019-02-12T19:55:35.688Z,12.37
2019-02-12T20:00:42.738Z,12.30
2019-02-12T20:06:02.523Z,12.53
2019-02-12T20:11:09.501Z,12.20
2019-02-12T20:16:16.519Z,14.97
2019-02-12T20:21:23.742Z,14.07
2019-02-12T20:26:32.525Z,16.73
2019-02-12T20:31:39.532Z,8.57
2019-02-12T20:36:46.129Z,18.17
2019-02-12T20:41:52.868Z,20.83
2019-02-12T20:46:59.470Z,9.50
2019-02-12T20:52:06.455Z,12.37
2019-02-12T20:57:15.385Z,19.63
2019-02-12T21:02:22.749Z,11.47
2019-02-12T21:07:29.808Z,13.23
2019-02-12T21:12:36.724Z,10.20
2019-02-12T21:17:43.416Z,12.03
2019-02-12T21:22:50.452Z,12.87
2019-02-12T21:27:57.480Z,10.70
2019-02-12T21:33:04.170Z,16.77
2019-02-12T21:38:13.067Z,14.70
2019-02-12T21:43:19.691Z,12.67
2019-02-12T21:48:25.820Z,10.43
2019-02-12T21:53:32.488Z,14.90
2019-02-12T21:58:38.936Z,14.87
2019-02-12T22:03:57.311Z,17.33
2019-02-12T22:09:05.429Z,14.80
2019-02-12T22:14:15.694Z,24.60
2019-02-12T22:19:22.592Z,24.60
2019-02-12T22:24:28.608Z,22.33
2019-02-12T22:29:34.584Z,19.23
2019-02-12T22:34:41.522Z,15.77
2019-02-12T22:39:48.322Z,15.50
2019-02-12T22:44:55.235Z,21.83
2019-02-12T22:50:02.763Z,15.83
2019-02-12T22:55:11.466Z,26.90
2019-02-12T23:00:51.081Z,12.17
2019-02-12T23:05:58.835Z,15.97
2019-02-12T23:11:06.143Z,14.47
2019-02-12T23:16:12.664Z,19.37
2019-02-12T23:21:19.127Z,21.07
2019-02-12T23:26:25.084Z,20.00
2019-02-12T23:31:31.197Z,22.47
2019-02-12T23:36:37.767Z,23.03
2019-02-12T23:41:45.445Z,22.20
2019-02-12T23:46:52.327Z,17.77
2019-02-12T23:51:59.317Z,21.67
2019-02-12T23:57:06.222Z,20.37
